createdAt,value
2022-12-14T00:01:18.269Z,20.00
2022-12-14T00:03:46.101Z,22.17
2022-12-14T00:06:30.228Z,22.90
2022-12-14T00:08:59.040Z,17.80
2022-12-14T00:11:33.260Z,18.67
2022-12-14T00:14:02.095Z,22.23
2022-12-14T00:16:30.668Z,19.08
2022-12-14T00:18:59.487Z,21.00
2022-12-14T00:21:27.249Z,19.37
2022-12-14T00:23:54.578Z,17.92
2022-12-14T00:26:26.387Z,19.13
2022-12-14T00:28:55.004Z,22.25
2022-12-14T00:31:22.724Z,21.15
2022-12-14T00:33:50.370Z,24.40
2022-12-14T00:36:17.924Z,16.77
2022-12-14T00:38:45.145Z,17.02
2022-12-14T00:41:12.071Z,15.02
2022-12-14T00:43:39.545Z,19.75
2022-12-14T00:46:06.613Z,18.83
2022-12-14T00:48:33.663Z,23.48
2022-12-14T00:51:00.440Z,18.38
2022-12-14T00:53:27.414Z,24.52
2022-12-14T00:55:54.365Z,19.60
2022-12-14T00:58:22.663Z,20.07
2022-12-14T01:00:59.600Z,19.02
2022-12-14T01:03:27.115Z,22.08
2022-12-14T01:05:54.086Z,20.60
2022-12-14T01:08:21.076Z,20.27
2022-12-14T01:10:47.681Z,20.03
2022-12-14T01:13:14.265Z,17.45
2022-12-14T01:15:41.038Z,16.42
2022-12-14T01:18:07.714Z,18.52
2022-12-14T01:20:34.354Z,19.00
2022-12-14T01:23:01.000Z,17.23
2022-12-14T01:25:27.590Z,20.98
2022-12-14T01:27:54.435Z,21.95
2022-12-14T01:30:21.199Z,21.75
2022-12-14T01:32:47.865Z,18.75
2022-12-14T01:35:14.729Z,20.97
2022-12-14T01:37:41.412Z,20.33
2022-12-14T01:40:09.015Z,20.38
2022-12-14T01:42:36.981Z,16.83
2022-12-14T01:45:05.522Z,19.15
2022-12-14T01:47:46.455Z,18.10
2022-12-14T01:50:25.909Z,22.70
2022-12-14T01:52:56.297Z,21.50
2022-12-14T01:55:26.587Z,25.60
2022-12-14T01:58:19.299Z,26.63
2022-12-14T02:00:46.164Z,26.23
2022-12-14T02:03:35.213Z,21.63
2022-12-14T02:06:08.939Z,22.27
2022-12-14T02:08:36.907Z,19.48
2022-12-14T02:11:03.649Z,21.02
2022-12-14T02:13:41.255Z,23.90
2022-12-14T02:16:08.330Z,18.83
2022-12-14T02:18:37.521Z,25.25
2022-12-14T02:24:13.268Z,15.85
2022-12-14T02:29:56.580Z,20.73
2022-12-14T02:32:45.503Z,21.70
2022-12-14T02:35:49.916Z,23.35
2022-12-14T02:38:35.792Z,22.65
2022-12-14T02:41:14.664Z,19.23
2022-12-14T02:44:18.593Z,20.92
2022-12-14T02:46:56.926Z,17.83
2022-12-14T02:49:42.603Z,18.80
2022-12-14T02:52:47.189Z,22.90
2022-12-14T02:55:40.202Z,20.43
2022-12-14T02:58:33.905Z,21.90
2022-12-14T03:01:01.308Z,23.85
2022-12-14T03:03:28.440Z,22.38
2022-12-14T03:06:04.969Z,22.08
2022-12-14T03:08:35.333Z,21.83
2022-12-14T03:11:05.581Z,22.02
2022-12-14T03:13:41.398Z,21.27
2022-12-14T03:16:27.501Z,25.02
2022-12-14T03:19:18.375Z,23.65
2022-12-14T03:22:09.031Z,22.40
2022-12-14T03:24:43.055Z,17.90
2022-12-14T03:27:19.287Z,19.92
2022-12-14T03:29:51.159Z,20.63
2022-12-14T03:32:22.816Z,16.77
2022-12-14T03:34:55.414Z,18.00
2022-12-14T03:37:25.073Z,15.30
2022-12-14T03:39:51.854Z,17.13
2022-12-14T03:42:30.382Z,16.67
2022-12-14T03:45:22.915Z,18.13
2022-12-14T03:47:58.726Z,16.13
2022-12-14T03:50:41.461Z,19.55
2022-12-14T03:53:17.142Z,16.02
2022-12-14T03:56:21.857Z,16.23
2022-12-14T03:58:56.812Z,16.20
2022-12-14T04:01:50.176Z,20.13
2022-12-14T04:04:31.610Z,24.42
2022-12-14T04:07:25.766Z,18.95
2022-12-14T04:10:00.715Z,20.15
2022-12-14T04:12:38.215Z,19.17
2022-12-14T04:15:11.614Z,17.10
2022-12-14T04:17:39.654Z,24.50
2022-12-14T04:20:11.490Z,24.88
2022-12-14T04:22:43.284Z,21.52
2022-12-14T04:25:14.945Z,26.08
2022-12-14T04:27:50.085Z,24.60
2022-12-14T04:30:17.067Z,21.98
2022-12-14T04:32:49.212Z,23.00
2022-12-14T04:35:37.370Z,17.85
2022-12-14T04:38:09.740Z,20.30
2022-12-14T04:40:57.903Z,19.77
2022-12-14T04:43:29.351Z,27.02
2022-12-14T04:46:01.354Z,22.58
2022-12-14T04:48:50.740Z,19.70
2022-12-14T04:51:25.245Z,23.52
2022-12-14T04:53:57.623Z,22.20
2022-12-14T04:56:50.967Z,19.42
2022-12-14T04:59:17.676Z,26.27
2022-12-14T05:02:08.363Z,20.30
2022-12-14T05:04:59.205Z,18.65
2022-12-14T05:07:40.693Z,20.83
2022-12-14T05:10:14.290Z,22.58
2022-12-14T05:12:50.874Z,26.17
2022-12-14T05:15:46.885Z,17.10
2022-12-14T05:18:14.414Z,21.77
2022-12-14T05:20:41.302Z,19.00
2022-12-14T05:23:08.618Z,19.35
2022-12-14T05:25:35.522Z,22.17
2022-12-14T05:28:06.208Z,27.02
2022-12-14T05:30:32.937Z,19.30
2022-12-14T05:32:59.568Z,22.00
2022-12-14T05:35:26.235Z,19.50
2022-12-14T05:38:04.855Z,21.52
2022-12-14T05:40:34.300Z,20.95
2022-12-14T05:43:12.384Z,31.25
2022-12-14T05:45:39.075Z,23.33
2022-12-14T05:48:07.003Z,19.95
2022-12-14T05:50:33.653Z,21.45
2022-12-14T05:53:00.281Z,23.17
2022-12-14T05:55:27.040Z,22.48
2022-12-14T05:57:53.756Z,21.57
2022-12-14T06:00:20.426Z,23.58
2022-12-14T06:03:02.195Z,25.95
2022-12-14T06:05:28.980Z,23.77
2022-12-14T06:07:55.895Z,24.30
2022-12-14T06:10:22.643Z,19.27
2022-12-14T06:12:49.323Z,28.42
2022-12-14T06:15:21.954Z,23.83
2022-12-14T06:17:48.554Z,23.40
2022-12-14T06:20:15.227Z,27.88
2022-12-14T06:22:47.367Z,22.70
2022-12-14T06:25:14.374Z,27.02
2022-12-14T06:27:41.156Z,23.27
2022-12-14T06:30:08.814Z,20.75
2022-12-14T06:32:35.370Z,19.40
2022-12-14T06:35:01.917Z,19.43
2022-12-14T06:37:28.538Z,22.08
2022-12-14T06:39:55.369Z,19.38
2022-12-14T06:42:22.010Z,18.27
2022-12-14T06:44:48.632Z,21.88
2022-12-14T06:47:15.483Z,20.57
2022-12-14T06:49:42.024Z,20.70
2022-12-14T06:52:30.121Z,21.88
2022-12-14T06:54:56.745Z,18.60
2022-12-14T06:57:56.911Z,20.48
2022-12-14T07:00:24.361Z,20.97
2022-12-14T07:02:51.185Z,16.25
2022-12-14T07:05:17.858Z,19.75
2022-12-14T07:07:44.594Z,24.25
2022-12-14T07:10:11.238Z,24.70
2022-12-14T07:12:37.854Z,19.40
2022-12-14T07:15:05.513Z,20.38
2022-12-14T07:17:34.226Z,17.80
2022-12-14T07:20:00.850Z,17.45
2022-12-14T07:22:27.442Z,20.25
2022-12-14T07:27:45.151Z,14.85
2022-12-14T07:30:21.067Z,16.45
2022-12-14T07:32:48.007Z,15.55
2022-12-14T07:35:16.697Z,18.23
2022-12-14T07:37:43.675Z,15.50
2022-12-14T07:40:16.167Z,19.50
2022-12-14T07:42:42.783Z,18.80
2022-12-14T07:45:17.344Z,19.20
2022-12-14T07:47:44.548Z,23.17
2022-12-14T07:50:20.258Z,24.70
2022-12-14T07:52:46.864Z,22.23
2022-12-14T07:55:13.601Z,20.15
2022-12-14T07:57:40.167Z,17.83
2022-12-14T08:00:07.430Z,15.18
2022-12-14T08:02:34.148Z,21.73
2022-12-14T08:05:00.891Z,19.30
2022-12-14T08:07:27.986Z,22.23
2022-12-14T08:09:54.537Z,18.10
2022-12-14T08:12:21.297Z,23.23
2022-12-14T08:14:49.116Z,22.90
2022-12-14T08:17:15.794Z,17.92
2022-12-14T08:19:42.358Z,17.27
2022-12-14T08:22:09.095Z,19.85
2022-12-14T08:24:35.670Z,30.08
2022-12-14T08:27:03.298Z,25.00
2022-12-14T08:29:30.015Z,16.88
2022-12-14T08:31:56.646Z,27.30
2022-12-14T08:34:23.264Z,24.58
2022-12-14T08:36:50.425Z,18.58
2022-12-14T08:39:17.146Z,21.23
2022-12-14T08:41:45.592Z,19.98
2022-12-14T08:44:12.306Z,27.92
2022-12-14T08:46:39.085Z,22.00
2022-12-14T08:49:14.591Z,19.85
2022-12-14T08:51:41.324Z,22.27
2022-12-14T08:54:09.005Z,25.92
2022-12-14T08:56:36.073Z,22.27
2022-12-14T08:59:19.813Z,20.85
2022-12-14T09:07:35.647Z,19.98
2022-12-14T09:10:02.512Z,24.25
2022-12-14T09:12:32.597Z,20.77
2022-12-14T09:14:59.250Z,22.45
2022-12-14T09:17:25.962Z,23.83
2022-12-14T09:20:06.852Z,22.92
2022-12-14T09:22:39.719Z,25.67
2022-12-14T09:25:06.946Z,26.13
2022-12-14T09:27:33.731Z,21.77
2022-12-14T09:30:09.507Z,21.77
2022-12-14T09:32:36.229Z,21.40
2022-12-14T09:35:13.914Z,21.60
2022-12-14T09:37:40.707Z,28.85
2022-12-14T09:40:14.230Z,22.23
2022-12-14T09:43:04.778Z,24.63
2022-12-14T09:45:39.696Z,23.25
2022-12-14T09:48:20.352Z,27.77
2022-12-14T09:50:49.136Z,21.23
2022-12-14T09:53:29.085Z,20.73
2022-12-14T09:55:57.756Z,24.23
2022-12-14T09:58:32.052Z,22.35
2022-12-14T10:01:23.245Z,22.20
2022-12-14T10:03:52.979Z,24.92
2022-12-14T10:06:40.183Z,31.17
2022-12-14T10:09:37.748Z,21.30
2022-12-14T10:12:16.770Z,23.05
2022-12-14T10:15:08.350Z,23.25
2022-12-14T10:18:03.796Z,29.13
2022-12-14T10:20:55.061Z,27.67
2022-12-14T10:23:24.888Z,26.97
2022-12-14T10:25:55.689Z,23.70
2022-12-14T10:29:01.531Z,25.42
2022-12-14T10:31:52.272Z,28.63
2022-12-14T10:34:33.722Z,20.85
2022-12-14T10:40:53.247Z,23.90
2022-12-14T10:43:38.139Z,26.83
2022-12-14T10:46:14.423Z,20.15
2022-12-14T10:49:02.312Z,20.92
2022-12-14T10:51:37.912Z,23.10
2022-12-14T10:54:26.786Z,20.90
2022-12-14T10:56:54.043Z,23.92
2022-12-14T10:59:22.679Z,24.27
2022-12-14T11:02:01.535Z,25.30
2022-12-14T11:04:35.149Z,26.13
2022-12-14T11:07:05.407Z,21.05
2022-12-14T11:09:32.818Z,23.40
2022-12-14T11:12:15.839Z,26.55
2022-12-14T11:14:58.093Z,22.90
2022-12-14T11:17:32.419Z,21.23
2022-12-14T11:20:19.594Z,21.13
2022-12-14T11:22:55.216Z,24.27
2022-12-14T11:25:31.700Z,22.88
2022-12-14T11:28:02.410Z,27.77
2022-12-14T11:30:30.858Z,23.60
2022-12-14T11:32:57.759Z,23.27
2022-12-14T11:35:24.422Z,27.05
2022-12-14T11:37:58.041Z,21.75
2022-12-14T11:40:36.844Z,25.92
2022-12-14T11:43:04.498Z,20.80
2022-12-14T11:45:33.312Z,26.17
2022-12-14T11:48:15.158Z,19.98
2022-12-14T11:50:43.196Z,17.20
2022-12-14T11:53:13.863Z,15.27
2022-12-14T11:55:57.015Z,24.17
2022-12-14T11:58:35.421Z,18.80
2022-12-14T12:01:25.176Z,21.73
2022-12-14T12:03:57.820Z,21.83
2022-12-14T12:06:38.831Z,26.48
2022-12-14T12:09:30.697Z,19.57
2022-12-14T12:11:57.579Z,18.80
2022-12-14T12:14:35.422Z,23.83
2022-12-14T12:17:02.046Z,17.10
2022-12-14T12:19:34.768Z,18.25
2022-12-14T12:22:03.129Z,19.50
2022-12-14T12:25:01.138Z,22.30
2022-12-14T12:27:29.438Z,17.58
2022-12-14T12:30:13.403Z,18.00
2022-12-14T12:32:49.941Z,15.30
2022-12-14T12:35:37.103Z,14.10
2022-12-14T12:38:12.565Z,15.77
2022-12-14T12:40:52.279Z,14.32
2022-12-14T12:43:32.185Z,12.35
2022-12-14T12:46:04.449Z,20.40
2022-12-14T12:48:49.472Z,18.40
2022-12-14T12:51:22.074Z,13.77
2022-12-14T12:53:56.278Z,14.30
2022-12-14T12:56:28.607Z,13.43
2022-12-14T12:58:55.730Z,17.13
2022-12-14T13:01:38.604Z,12.90
2022-12-14T13:04:15.581Z,13.85
2022-12-14T13:06:56.954Z,12.55
2022-12-14T13:09:29.490Z,13.52
2022-12-14T13:11:58.065Z,13.60
2022-12-14T13:14:50.009Z,11.60
2022-12-14T13:17:49.477Z,13.52
2022-12-14T13:20:25.966Z,14.55
2022-12-14T13:22:53.159Z,16.55
2022-12-14T13:25:38.407Z,12.00
2022-12-14T13:28:30.517Z,16.27
2022-12-14T13:31:21.816Z,12.95
2022-12-14T13:33:55.499Z,15.15
2022-12-14T13:36:22.019Z,16.58
2022-12-14T13:38:56.247Z,14.57
2022-12-14T13:41:53.465Z,13.93
2022-12-14T13:44:37.261Z,14.50
2022-12-14T13:47:15.497Z,15.63
2022-12-14T13:50:05.188Z,13.10
2022-12-14T13:52:46.121Z,17.02
2022-12-14T13:55:32.721Z,15.93
2022-12-14T13:58:19.476Z,19.08
2022-12-14T14:00:46.205Z,20.75
2022-12-14T14:03:37.145Z,16.67
2022-12-14T14:06:12.820Z,14.95
2022-12-14T14:08:45.361Z,14.73
2022-12-14T14:11:36.373Z,14.13
2022-12-14T14:14:28.995Z,17.83
2022-12-14T14:17:03.332Z,13.48
2022-12-14T14:19:40.028Z,13.60
2022-12-14T14:22:26.995Z,16.33
2022-12-14T14:25:01.425Z,13.50
2022-12-14T14:27:50.541Z,14.75
2022-12-14T14:30:57.890Z,17.38
2022-12-14T14:33:47.296Z,17.55
2022-12-14T14:36:28.188Z,15.67
2022-12-14T14:43:13.481Z,20.38
2022-12-14T14:46:07.199Z,18.63
2022-12-14T14:48:55.161Z,18.83
2022-12-14T14:51:36.979Z,20.97
2022-12-14T14:55:43.430Z,23.13
2022-12-14T14:57:44.032Z,22.67
2022-12-14T15:00:33.903Z,19.92
2022-12-14T15:03:04.169Z,22.08
2022-12-14T15:05:43.675Z,22.63
2022-12-14T15:08:16.689Z,20.05
2022-12-14T15:10:45.547Z,20.05
2022-12-14T15:13:41.177Z,21.05
2022-12-14T15:16:44.936Z,22.38
2022-12-14T15:19:37.546Z,21.97
2022-12-14T15:25:13.226Z,20.85
2022-12-14T15:27:54.885Z,24.13
2022-12-14T15:30:22.817Z,19.17
2022-12-14T15:32:57.067Z,22.37
2022-12-14T15:35:39.195Z,19.88
2022-12-14T15:38:08.593Z,22.15
2022-12-14T15:40:41.193Z,21.42
2022-12-14T15:43:27.384Z,21.88
2022-12-14T15:46:41.451Z,23.33
2022-12-14T15:49:21.028Z,22.80
2022-12-14T15:51:58.325Z,23.63
2022-12-14T15:54:26.086Z,25.70
2022-12-14T15:56:59.814Z,23.60
2022-12-14T15:59:36.589Z,21.87
2022-12-14T16:02:24.444Z,22.77
2022-12-14T16:04:52.230Z,24.33
2022-12-14T16:07:39.295Z,23.02
2022-12-14T16:10:22.765Z,27.05
2022-12-14T16:12:54.983Z,21.43
2022-12-14T16:15:34.435Z,24.92
2022-12-14T16:18:03.007Z,25.83
2022-12-14T16:20:37.706Z,27.17
2022-12-14T16:23:22.960Z,24.83
2022-12-14T16:25:56.046Z,27.57
2022-12-14T16:28:48.172Z,30.15
2022-12-14T16:31:29.699Z,28.23
2022-12-14T16:34:16.873Z,21.80
2022-12-14T16:36:56.263Z,24.25
2022-12-14T16:39:46.868Z,22.77
2022-12-14T16:42:36.714Z,24.58
2022-12-14T16:45:35.158Z,23.23
2022-12-14T16:48:16.303Z,23.38
2022-12-14T16:51:03.587Z,27.20
2022-12-14T16:53:30.379Z,28.83
2022-12-14T16:56:16.416Z,29.67
2022-12-14T16:58:52.174Z,29.98
2022-12-14T17:01:19.418Z,26.17
2022-12-14T17:04:00.531Z,26.23
2022-12-14T17:06:36.002Z,28.67
2022-12-14T17:09:04.062Z,29.23
2022-12-14T17:11:30.851Z,27.10
2022-12-14T17:13:58.632Z,32.65
2022-12-14T17:16:32.889Z,31.58
2022-12-14T17:19:04.876Z,36.47
2022-12-14T17:21:31.864Z,29.13
2022-12-14T17:23:58.517Z,32.88
2022-12-14T17:26:36.278Z,30.27
2022-12-14T17:29:03.152Z,33.20
2022-12-14T17:31:50.139Z,31.03
2022-12-14T17:36:57.884Z,24.27
2022-12-14T17:39:24.579Z,28.75
2022-12-14T17:41:51.392Z,28.27
2022-12-14T17:44:30.709Z,28.17
2022-12-14T17:46:57.415Z,24.80
2022-12-14T17:49:40.787Z,27.88
2022-12-14T17:52:15.594Z,27.13
2022-12-14T17:54:45.389Z,26.13
2022-12-14T18:00:02.936Z,30.63
2022-12-14T18:02:36.372Z,28.77
2022-12-14T18:05:03.721Z,51.47
2022-12-14T18:07:30.309Z,31.23
2022-12-14T18:10:06.458Z,36.07
2022-12-14T18:12:33.100Z,31.98
2022-12-14T18:14:59.879Z,36.05
2022-12-14T18:17:26.552Z,41.85
2022-12-14T18:20:00.207Z,41.83
2022-12-14T18:22:26.788Z,42.03
2022-12-14T18:24:53.432Z,34.45
2022-12-14T18:27:20.111Z,35.38
2022-12-14T18:30:00.066Z,40.53
2022-12-14T18:32:26.793Z,40.05
2022-12-14T18:34:53.463Z,40.17
2022-12-14T18:37:24.515Z,42.28
2022-12-14T18:39:52.916Z,47.63
2022-12-14T18:42:22.951Z,56.00
2022-12-14T18:44:49.904Z,46.80
2022-12-14T18:47:43.094Z,46.83
2022-12-14T18:53:13.173Z,56.85
2022-12-14T18:55:41.279Z,54.85
2022-12-14T18:58:20.195Z,56.75
2022-12-14T19:00:48.697Z,53.93
2022-12-14T19:03:15.541Z,40.13
2022-12-14T19:05:42.779Z,41.67
2022-12-14T19:08:10.717Z,37.47
2022-12-14T19:10:40.931Z,34.88
2022-12-14T19:13:18.110Z,39.40
2022-12-14T19:15:50.350Z,43.28
2022-12-14T19:18:17.223Z,36.78
2022-12-14T19:20:43.918Z,36.28
2022-12-14T19:23:15.970Z,35.08
2022-12-14T19:25:46.400Z,33.67
2022-12-14T19:28:36.346Z,33.15
2022-12-14T19:31:03.238Z,36.38
2022-12-14T19:33:30.364Z,32.20
2022-12-14T19:35:57.367Z,33.03
2022-12-14T19:38:30.304Z,31.07
2022-12-14T19:44:07.787Z,29.20
2022-12-14T19:46:35.449Z,30.08
2022-12-14T19:49:04.502Z,26.30
2022-12-14T20:00:18.468Z,28.38
2022-12-14T20:02:49.934Z,31.60
2022-12-14T20:08:24.071Z,29.42
2022-12-14T20:10:51.895Z,27.67
2022-12-14T20:13:18.955Z,32.22
2022-12-14T20:15:56.705Z,29.45
2022-12-14T20:18:24.606Z,24.27
2022-12-14T20:20:53.545Z,26.65
2022-12-14T20:26:02.899Z,29.52
2022-12-14T20:28:29.676Z,25.95
2022-12-14T20:30:56.425Z,28.33
2022-12-14T20:33:29.642Z,25.27
2022-12-14T20:35:56.733Z,24.65
2022-12-14T20:38:23.426Z,25.88
2022-12-14T20:40:50.596Z,24.77
2022-12-14T20:43:18.762Z,26.37
2022-12-14T20:45:45.486Z,31.25
2022-12-14T20:48:13.007Z,24.50
2022-12-14T20:50:44.214Z,24.90
2022-12-14T20:53:18.073Z,30.48
2022-12-14T20:55:44.812Z,23.30
2022-12-14T20:58:11.574Z,22.83
2022-12-14T21:00:38.189Z,26.33
2022-12-14T21:03:20.177Z,29.55
2022-12-14T21:05:46.851Z,24.75
2022-12-14T21:08:19.896Z,28.63
2022-12-14T21:10:46.679Z,19.88
2022-12-14T21:13:28.898Z,22.83
2022-12-14T21:16:14.236Z,23.25
2022-12-14T21:18:42.140Z,26.75
2022-12-14T21:21:08.861Z,26.57
2022-12-14T21:23:35.531Z,26.48
2022-12-14T21:26:09.383Z,24.45
2022-12-14T21:28:36.173Z,24.98
2022-12-14T21:31:07.479Z,26.27
2022-12-14T21:33:35.291Z,25.03
2022-12-14T21:36:05.674Z,28.60
2022-12-14T21:41:18.274Z,23.92
2022-12-14T21:43:45.024Z,24.58
2022-12-14T21:46:12.027Z,25.67
2022-12-14T21:48:38.972Z,24.02
2022-12-14T21:51:18.715Z,23.40
2022-12-14T21:53:53.265Z,26.67
2022-12-14T21:56:19.973Z,23.75
2022-12-14T21:58:53.921Z,23.93
2022-12-14T22:01:31.992Z,25.67
2022-12-14T22:03:58.734Z,22.92
2022-12-14T22:06:25.505Z,27.35
2022-12-14T22:08:52.181Z,26.08
2022-12-14T22:11:18.781Z,21.17
2022-12-14T22:13:45.359Z,21.10
2022-12-14T22:16:12.163Z,24.17
2022-12-14T22:18:38.913Z,23.38
2022-12-14T22:21:07.380Z,25.98
2022-12-14T22:26:04.328Z,24.10
2022-12-14T22:28:32.092Z,20.50
2022-12-14T22:31:03.690Z,23.10
2022-12-14T22:33:32.647Z,26.73
2022-12-14T22:36:04.271Z,27.50
2022-12-14T22:38:32.473Z,23.08
2022-12-14T22:41:05.650Z,25.92
2022-12-14T22:43:37.232Z,25.88
2022-12-14T22:46:05.471Z,32.95
2022-12-14T22:48:36.504Z,26.87
2022-12-14T22:51:11.643Z,26.42
2022-12-14T22:53:39.000Z,27.05
2022-12-14T22:56:40.085Z,27.85
2022-12-14T22:59:18.891Z,24.02
2022-12-14T23:04:26.808Z,26.40
2022-12-14T23:29:24.677Z,22.83
2022-12-14T23:44:00.345Z,24.23
2022-12-14T23:46:27.255Z,24.73
2022-12-14T23:48:54.073Z,24.73
2022-12-14T23:54:43.538Z,23.95
2022-12-14T23:57:30.517Z,26.23
2022-12-14T23:59:57.273Z,29.67
